createdAt,value
2019-04-20T00:01:28.705Z,61.20
2019-04-20T00:03:58.888Z,61.30
2019-04-20T00:06:31.665Z,61.60
2019-04-20T00:09:08.764Z,61.80
2019-04-20T00:11:47.078Z,61.70
2019-04-20T00:14:13.786Z,62.60
2019-04-20T00:16:37.845Z,62.60
2019-04-20T00:19:09.380Z,61.20
2019-04-20T00:21:52.679Z,63.20
2019-04-20T00:24:49.136Z,64.60
2019-04-20T00:27:40.541Z,63.70
2019-04-20T00:30:04.451Z,63.80
2019-04-20T00:32:40.046Z,63.40
2019-04-20T00:34:53.683Z,61.60
2019-04-20T00:37:23.874Z,60.90
2019-04-20T00:39:56.007Z,60.90
2019-04-20T00:42:34.603Z,60.90
2019-04-20T00:45:07.974Z,60.80
2019-04-20T00:47:39.107Z,60.60
2019-04-20T00:50:22.269Z,62.00
2019-04-20T00:52:52.667Z,62.60
2019-04-20T00:55:06.396Z,61.60
2019-04-20T00:57:46.704Z,60.90
2019-04-20T01:00:27.339Z,61.50
2019-04-20T01:02:52.199Z,62.30
2019-04-20T01:06:02.264Z,62.40
2019-04-20T01:08:34.039Z,63.30
2019-04-20T01:11:04.268Z,64.00
2019-04-20T01:13:42.141Z,63.70
2019-04-20T01:16:20.822Z,62.10
2019-04-20T01:18:37.352Z,62.60
2019-04-20T01:21:14.875Z,63.20
2019-04-20T01:23:48.007Z,62.70
2019-04-20T01:26:16.394Z,61.70
2019-04-20T01:28:58.525Z,62.40
2019-04-20T01:31:26.717Z,61.70
2019-04-20T01:33:57.726Z,61.50
2019-04-20T01:36:37.107Z,61.40
2019-04-20T01:39:06.709Z,61.00
2019-04-20T01:41:22.426Z,61.00
2019-04-20T01:43:52.351Z,61.00
2019-04-20T01:46:26.340Z,61.00
2019-04-20T01:48:54.756Z,61.00
2019-04-20T01:51:28.575Z,61.00
2019-04-20T01:54:16.034Z,61.00
2019-04-20T01:56:47.262Z,61.50
2019-04-20T01:59:34.830Z,62.70
2019-04-20T02:02:16.614Z,63.00
2019-04-20T02:04:51.869Z,63.20
2019-04-20T02:07:28.484Z,63.30
2019-04-20T02:09:58.264Z,62.90
2019-04-20T02:12:28.674Z,62.30
2019-04-20T02:14:59.455Z,62.20
2019-04-20T02:17:36.692Z,61.60
2019-04-20T02:20:15.685Z,63.70
2019-04-20T02:22:50.631Z,63.40
2019-04-20T02:25:01.715Z,64.10
2019-04-20T02:27:40.618Z,64.60
2019-04-20T02:30:44.933Z,63.90
2019-04-20T02:33:16.756Z,66.60
2019-04-20T02:36:13.823Z,66.00
2019-04-20T02:39:21.906Z,66.70
2019-04-20T02:46:45.312Z,66.70
2019-04-20T02:49:19.792Z,69.20
2019-04-20T02:54:16.566Z,70.50
2019-04-20T02:56:47.650Z,71.10
2019-04-20T02:59:47.567Z,68.10
2019-04-20T03:01:36.877Z,65.30
2019-04-20T03:03:54.545Z,64.00
2019-04-20T03:06:33.060Z,63.90
2019-04-20T03:09:17.256Z,63.10
2019-04-20T03:11:54.024Z,63.40
2019-04-20T03:14:14.932Z,64.10
2019-04-20T03:16:48.568Z,63.00
2019-04-20T03:19:17.086Z,63.30
2019-04-20T03:21:56.949Z,64.10
2019-04-20T03:24:35.726Z,63.70
2019-04-20T03:26:57.012Z,63.50
2019-04-20T03:29:46.926Z,63.80
2019-04-20T03:37:36.971Z,63.20
2019-04-20T03:39:56.726Z,63.40
2019-04-20T03:42:18.142Z,63.70
2019-04-20T03:44:52.933Z,63.70
2019-04-20T03:47:30.363Z,63.50
2019-04-20T03:50:10.728Z,64.80
2019-04-20T03:52:57.957Z,63.70
2019-04-20T03:55:30.297Z,63.70
2019-04-20T03:58:24.155Z,63.70
2019-04-20T04:01:34.507Z,63.30
2019-04-20T04:03:58.756Z,63.50
2019-04-20T04:06:21.496Z,63.80
2019-04-20T04:08:55.510Z,67.40
2019-04-20T04:11:26.197Z,67.20
2019-04-20T04:13:43.825Z,66.70
2019-04-20T04:16:18.152Z,70.00
2019-04-20T04:18:49.712Z,71.20
2019-04-20T04:21:27.478Z,70.50
2019-04-20T04:24:05.854Z,69.20
2019-04-20T04:26:35.278Z,70.30
2019-04-20T04:29:13.706Z,68.40
2019-04-20T04:31:50.801Z,67.60
2019-04-20T04:34:12.565Z,68.60
2019-04-20T04:36:50.127Z,68.20
2019-04-20T04:39:21.215Z,68.30
2019-04-20T04:42:01.572Z,68.70
2019-04-20T04:44:20.213Z,68.60
2019-04-20T04:46:42.628Z,68.80
2019-04-20T04:49:18.036Z,68.40
2019-04-20T04:51:46.784Z,68.50
2019-04-20T04:54:21.998Z,68.40
2019-04-20T04:56:41.927Z,67.00
2019-04-20T04:59:12.785Z,67.10
2019-04-20T05:01:47.775Z,66.50
2019-04-20T05:04:33.937Z,66.20
2019-04-20T05:06:59.543Z,66.50
2019-04-20T05:09:18.805Z,66.50
2019-04-20T05:11:56.133Z,66.30
2019-04-20T05:14:26.212Z,65.60
2019-04-20T05:17:07.742Z,65.00
2019-04-20T05:19:47.470Z,64.60
2019-04-20T05:22:20.559Z,65.00
2019-04-20T05:25:04.637Z,65.30
2019-04-20T05:27:47.819Z,65.10
2019-04-20T05:30:01.271Z,64.60
2019-04-20T05:32:42.816Z,64.80
2019-04-20T05:35:27.011Z,64.60
2019-04-20T05:38:02.559Z,64.50
2019-04-20T05:40:27.499Z,65.00
2019-04-20T05:43:01.889Z,64.90
2019-04-20T05:45:29.987Z,64.40
2019-04-20T05:48:02.529Z,63.30
2019-04-20T05:50:37.722Z,61.40
2019-04-20T05:53:14.855Z,63.50
2019-04-20T05:55:43.141Z,64.00
2019-04-20T05:58:08.816Z,60.60
2019-04-20T06:00:55.417Z,61.70
2019-04-20T06:03:16.451Z,61.70
2019-04-20T06:05:58.262Z,61.90
2019-04-20T06:08:34.609Z,60.90
2019-04-20T06:10:56.467Z,58.40
2019-04-20T06:13:38.093Z,60.10
2019-04-20T06:16:29.807Z,60.30
2019-04-20T06:19:18.352Z,59.20
2019-04-20T06:21:54.340Z,58.90
2019-04-20T06:24:26.549Z,57.90
2019-04-20T06:29:23.697Z,52.90
2019-04-20T06:31:57.986Z,57.30
2019-04-20T06:34:46.573Z,53.20
2019-04-20T06:37:06.828Z,55.90
2019-04-20T06:42:18.014Z,52.90
2019-04-20T06:47:17.617Z,52.80
2019-04-20T06:49:37.916Z,57.40
2019-04-20T06:52:45.395Z,53.60
2019-04-20T06:55:28.935Z,51.70
2019-04-20T07:00:15.361Z,51.00
2019-04-20T07:02:48.151Z,54.10
2019-04-20T07:05:19.007Z,52.90
2019-04-20T07:07:54.626Z,50.90
2019-04-20T07:10:25.300Z,51.80
2019-04-20T07:12:49.541Z,51.80
2019-04-20T07:15:26.974Z,53.20
2019-04-20T07:18:06.476Z,50.60
2019-04-20T07:20:55.600Z,43.70
2019-04-20T07:25:55.637Z,48.20
2019-04-20T07:28:29.148Z,51.60
2019-04-20T07:30:56.896Z,47.40
2019-04-20T07:33:29.736Z,46.20
2019-04-20T07:35:57.444Z,46.20
2019-04-20T07:38:36.853Z,50.50
2019-04-20T07:41:01.298Z,43.70
2019-04-20T07:43:29.987Z,47.60
2019-04-20T07:46:10.538Z,46.50
2019-04-20T07:48:39.605Z,45.50
2019-04-20T07:50:58.309Z,47.20
2019-04-20T07:53:35.283Z,46.20
2019-04-20T07:56:13.346Z,47.70
2019-04-20T07:58:33.885Z,44.20
2019-04-20T08:01:30.238Z,43.00
2019-04-20T08:04:05.989Z,47.80
2019-04-20T08:06:30.271Z,48.00
2019-04-20T08:09:07.153Z,42.00
2019-04-20T08:11:52.745Z,48.80
2019-04-20T08:14:19.316Z,48.60
2019-04-20T08:16:58.653Z,46.00
2019-04-20T08:19:17.467Z,48.10
2019-04-20T08:22:13.541Z,49.60
2019-04-20T08:24:18.432Z,45.80
2019-04-20T08:26:41.547Z,44.30
2019-04-20T08:29:28.205Z,44.50
2019-04-20T08:32:26.900Z,46.60
2019-04-20T08:35:02.065Z,46.40
2019-04-20T08:37:26.833Z,45.40
2019-04-20T08:40:08.344Z,45.50
2019-04-20T08:42:40.412Z,40.70
2019-04-20T08:54:26.153Z,40.20
2019-04-20T08:56:47.972Z,41.80
2019-04-20T08:59:11.904Z,42.00
2019-04-20T09:01:42.642Z,40.50
2019-04-20T09:04:18.632Z,40.10
2019-04-20T09:06:57.194Z,39.00
2019-04-20T09:09:44.541Z,38.20
2019-04-20T09:12:06.139Z,44.00
2019-04-20T09:14:23.543Z,39.70
2019-04-20T09:17:07.069Z,43.40
2019-04-20T09:19:42.143Z,40.20
2019-04-20T09:22:28.079Z,41.10
2019-04-20T09:25:19.274Z,40.80
2019-04-20T09:27:33.010Z,39.80
2019-04-20T09:30:13.734Z,40.70
2019-04-20T09:32:45.316Z,39.90
2019-04-20T09:35:26.600Z,38.60
2019-04-20T09:37:59.960Z,38.30
2019-04-20T09:40:35.016Z,40.60
2019-04-20T09:43:00.215Z,44.40
2019-04-20T09:45:42.986Z,41.60
2019-04-20T09:48:15.710Z,39.00
2019-04-20T09:51:02.331Z,41.60
2019-04-20T09:53:24.717Z,39.40
2019-04-20T09:56:04.689Z,43.30
2019-04-20T09:58:27.185Z,40.70
2019-04-20T10:01:01.758Z,38.50
2019-04-20T10:03:18.746Z,38.60
2019-04-20T10:05:49.647Z,43.00
2019-04-20T10:08:19.724Z,38.80
2019-04-20T10:11:53.198Z,42.30
2019-04-20T10:14:26.910Z,40.60
2019-04-20T10:16:57.871Z,40.90
2019-04-20T10:19:32.438Z,41.70
2019-04-20T10:22:00.397Z,40.90
2019-04-20T10:24:32.795Z,38.10
2019-04-20T10:27:03.013Z,36.20
2019-04-20T10:29:33.556Z,37.10
2019-04-20T10:32:10.143Z,40.30
2019-04-20T10:34:36.577Z,41.00
2019-04-20T10:37:13.525Z,41.20
2019-04-20T10:39:44.681Z,38.70
2019-04-20T10:42:16.328Z,38.10
2019-04-20T10:44:48.039Z,38.40
2019-04-20T10:47:18.971Z,37.50
2019-04-20T10:49:49.277Z,36.40
2019-04-20T10:52:20.005Z,36.00
2019-04-20T10:54:50.365Z,38.90
2019-04-20T10:57:21.577Z,38.80
2019-04-20T10:59:51.921Z,39.30
2019-04-20T11:02:25.909Z,38.10
2019-04-20T11:04:56.989Z,36.10
2019-04-20T11:07:26.754Z,35.00
2019-04-20T11:10:10.632Z,35.80
2019-04-20T11:12:28.414Z,36.60
2019-04-20T11:14:58.766Z,35.60
2019-04-20T11:17:29.992Z,37.90
2019-04-20T11:19:59.649Z,37.40
2019-04-20T11:22:30.504Z,37.80
2019-04-20T11:25:00.341Z,35.20
2019-04-20T11:27:30.085Z,36.60
2019-04-20T11:30:00.198Z,35.40
2019-04-20T11:32:30.486Z,35.10
2019-04-20T11:35:02.223Z,37.10
2019-04-20T11:37:33.083Z,35.00
2019-04-20T11:40:03.221Z,34.90
2019-04-20T11:42:32.954Z,35.00
2019-04-20T11:45:02.802Z,34.70
2019-04-20T11:47:33.667Z,35.30
2019-04-20T11:50:03.749Z,36.40
2019-04-20T11:52:38.777Z,35.50
2019-04-20T11:55:06.310Z,36.50
2019-04-20T11:57:37.524Z,38.30
2019-04-20T12:00:08.756Z,36.60
2019-04-20T12:03:12.028Z,38.10
2019-04-20T12:05:40.555Z,36.20
2019-04-20T12:08:07.026Z,32.30
2019-04-20T12:10:37.239Z,34.20
2019-04-20T12:13:07.907Z,34.40
2019-04-20T12:15:38.902Z,36.80
2019-04-20T12:18:09.511Z,35.80
2019-04-20T12:20:40.869Z,35.90
2019-04-20T12:23:10.892Z,37.50
2019-04-20T12:25:42.452Z,38.60
2019-04-20T12:28:12.109Z,36.10
2019-04-20T12:30:42.023Z,35.20
2019-04-20T12:33:11.608Z,36.40
2019-04-20T12:35:42.551Z,37.10
2019-04-20T12:38:12.803Z,33.70
2019-04-20T12:40:42.388Z,35.90
2019-04-20T12:43:13.194Z,37.70
2019-04-20T12:45:44.123Z,38.60
2019-04-20T12:48:13.989Z,38.10
2019-04-20T12:50:45.635Z,33.60
2019-04-20T12:53:15.298Z,34.50
2019-04-20T12:55:46.455Z,37.60
2019-04-20T12:58:16.764Z,35.70
2019-04-20T13:00:49.779Z,36.10
2019-04-20T13:03:19.591Z,36.20
2019-04-20T13:05:50.100Z,35.70
2019-04-20T13:08:29.557Z,37.50
2019-04-20T13:10:58.416Z,33.70
2019-04-20T13:13:54.460Z,37.30
2019-04-20T13:16:30.247Z,35.90
2019-04-20T13:19:03.525Z,35.10
2019-04-20T13:21:34.756Z,34.80
2019-04-20T13:24:05.108Z,36.20
2019-04-20T13:26:35.246Z,37.90
2019-04-20T13:29:10.974Z,32.60
2019-04-20T13:31:42.066Z,35.80
2019-04-20T13:34:13.252Z,32.80
2019-04-20T13:36:44.098Z,36.30
2019-04-20T13:39:14.314Z,33.70
2019-04-20T13:41:58.776Z,35.00
2019-04-20T13:44:17.874Z,35.10
2019-04-20T13:46:49.176Z,37.90
2019-04-20T13:49:18.991Z,36.60
2019-04-20T13:51:59.892Z,34.30
2019-04-20T13:54:29.966Z,33.80
2019-04-20T13:57:03.916Z,33.70
2019-04-20T13:59:53.038Z,36.00
2019-04-20T14:02:51.035Z,35.50
2019-04-20T14:05:31.339Z,34.30
2019-04-20T14:08:05.288Z,35.00
2019-04-20T14:10:35.469Z,33.00
2019-04-20T14:13:11.857Z,37.10
2019-04-20T14:15:37.457Z,37.20
2019-04-20T14:18:07.161Z,36.60
2019-04-20T14:20:38.082Z,35.50
2019-04-20T14:23:09.367Z,33.20
2019-04-20T14:25:39.326Z,38.30
2019-04-20T14:28:09.332Z,36.10
2019-04-20T14:30:40.189Z,37.20
2019-04-20T14:33:10.622Z,33.90
2019-04-20T14:35:40.953Z,33.00
2019-04-20T14:38:12.919Z,37.30
2019-04-20T14:40:42.177Z,35.10
2019-04-20T14:43:13.215Z,38.90
2019-04-20T14:45:43.402Z,35.40
2019-04-20T14:48:13.164Z,35.50
2019-04-20T14:50:45.665Z,38.00
2019-04-20T14:53:54.148Z,37.70
2019-04-20T14:56:25.265Z,38.60
2019-04-20T14:59:02.186Z,35.80
2019-04-20T15:01:34.991Z,36.20
2019-04-20T15:04:11.555Z,37.80
2019-04-20T15:06:39.698Z,34.90
2019-04-20T15:09:10.745Z,35.60
2019-04-20T15:11:41.696Z,36.00
2019-04-20T15:14:11.787Z,36.70
2019-04-20T15:16:44.586Z,36.50
2019-04-20T15:19:31.707Z,35.70
2019-04-20T15:22:03.292Z,39.30
2019-04-20T15:24:33.552Z,38.70
2019-04-20T15:27:04.660Z,37.40
2019-04-20T15:29:34.389Z,38.70
2019-04-20T15:32:13.198Z,38.10
2019-04-20T15:34:52.937Z,35.40
2019-04-20T15:37:23.422Z,39.40
2019-04-20T15:39:53.305Z,37.40
2019-04-20T15:42:23.383Z,39.40
2019-04-20T15:44:53.502Z,38.20
2019-04-20T15:47:25.789Z,40.80
2019-04-20T15:49:56.069Z,39.10
2019-04-20T15:52:33.621Z,40.10
2019-04-20T15:54:57.219Z,41.10
2019-04-20T15:57:29.379Z,39.40
2019-04-20T15:59:58.587Z,40.40
2019-04-20T16:02:36.939Z,39.60
2019-04-20T16:05:30.366Z,40.00
2019-04-20T16:08:23.774Z,40.10
2019-04-20T16:10:55.303Z,39.40
2019-04-20T16:13:36.100Z,40.00
2019-04-20T16:16:01.569Z,39.90
2019-04-20T16:18:32.748Z,40.60
2019-04-20T16:21:09.227Z,39.30
2019-04-20T16:23:54.802Z,39.70
2019-04-20T16:26:53.682Z,40.40
2019-04-20T16:29:29.414Z,39.80
2019-04-20T16:32:00.477Z,38.30
2019-04-20T16:34:31.657Z,40.00
2019-04-20T16:37:02.196Z,40.70
2019-04-20T16:39:32.318Z,40.00
2019-04-20T16:42:20.298Z,38.90
2019-04-20T16:44:53.469Z,39.40
2019-04-20T16:47:24.054Z,38.40
2019-04-20T16:49:55.049Z,36.70
2019-04-20T16:52:25.148Z,38.80
2019-04-20T16:54:55.660Z,40.00
2019-04-20T16:57:25.617Z,37.60
2019-04-20T16:59:59.294Z,39.60
2019-04-20T17:02:29.857Z,39.80
2019-04-20T17:05:00.938Z,36.20
2019-04-20T17:07:37.298Z,37.10
2019-04-20T17:10:07.553Z,40.80
2019-04-20T17:12:39.917Z,38.00
2019-04-20T17:15:10.159Z,39.40
2019-04-20T17:17:40.446Z,38.10
2019-04-20T17:20:12.369Z,39.20
2019-04-20T17:22:44.390Z,39.40
2019-04-20T17:25:16.354Z,41.20
2019-04-20T17:28:05.217Z,39.70
2019-04-20T17:30:58.954Z,42.40
2019-04-20T17:33:45.580Z,40.10
2019-04-20T17:36:14.459Z,39.10
2019-04-20T17:38:44.510Z,38.40
2019-04-20T17:41:30.673Z,38.00
2019-04-20T17:44:04.181Z,38.10
2019-04-20T17:46:28.748Z,39.60
2019-04-20T17:49:00.698Z,43.50
2019-04-20T17:51:46.342Z,47.10
2019-04-20T17:54:08.461Z,48.10
2019-04-20T17:56:40.391Z,47.90
2019-04-20T17:59:12.487Z,47.70
2019-04-20T18:02:07.755Z,48.70
2019-04-20T18:04:53.781Z,45.80
2019-04-20T18:07:29.935Z,46.70
2019-04-20T18:09:58.893Z,45.90
2019-04-20T18:12:07.619Z,45.30
2019-04-20T18:14:51.766Z,44.80
2019-04-20T18:17:29.315Z,46.70
2019-04-20T18:19:58.740Z,44.30
2019-04-20T18:22:31.856Z,47.00
2019-04-20T18:25:22.405Z,46.40
2019-04-20T18:27:53.402Z,44.80
2019-04-20T18:30:24.118Z,45.50
2019-04-20T18:32:41.201Z,47.10
2019-04-20T18:35:22.640Z,47.10
2019-04-20T18:38:02.629Z,48.40
2019-04-20T18:40:36.135Z,49.90
2019-04-20T18:43:05.902Z,47.70
2019-04-20T18:45:52.861Z,46.50
2019-04-20T18:48:24.966Z,46.90
2019-04-20T18:50:41.770Z,46.90
2019-04-20T18:53:14.737Z,47.20
2019-04-20T18:55:46.829Z,46.80
2019-04-20T18:58:13.294Z,47.90
2019-04-20T19:00:49.063Z,50.10
2019-04-20T19:03:25.624Z,48.90
2019-04-20T19:05:47.589Z,48.40
2019-04-20T19:08:19.301Z,48.10
2019-04-20T19:10:57.833Z,47.80
2019-04-20T19:13:59.191Z,48.00
2019-04-20T19:16:54.120Z,48.10
2019-04-20T19:19:35.232Z,48.10
2019-04-20T19:21:56.790Z,47.50
2019-04-20T19:24:29.702Z,48.30
2019-04-20T19:27:03.513Z,49.30
2019-04-20T19:29:35.228Z,49.10
2019-04-20T19:32:20.568Z,49.10
2019-04-20T19:34:47.496Z,48.80
2019-04-20T19:37:17.175Z,49.20
2019-04-20T19:39:49.456Z,49.30
2019-04-20T19:42:19.829Z,49.40
2019-04-20T19:44:53.832Z,49.60
2019-04-20T19:47:33.518Z,49.80
2019-04-20T19:49:51.770Z,49.90
2019-04-20T19:52:36.509Z,50.20
2019-04-20T19:55:02.693Z,50.50
2019-04-20T19:57:39.849Z,50.80
2019-04-20T19:59:52.763Z,50.80
2019-04-20T20:02:19.798Z,51.00
2019-04-20T20:04:57.308Z,51.10
2019-04-20T20:07:31.036Z,51.10
2019-04-20T20:09:58.446Z,51.50
2019-04-20T20:12:27.307Z,51.60
2019-04-20T20:14:57.515Z,51.70
2019-04-20T20:17:48.418Z,51.60
2019-04-20T20:20:30.063Z,51.70
2019-04-20T20:22:37.835Z,51.90
2019-04-20T20:25:03.154Z,52.00
2019-04-20T20:27:46.924Z,52.20
2019-04-20T20:30:12.744Z,52.20
2019-04-20T20:32:59.245Z,52.50
2019-04-20T20:35:15.462Z,52.50
2019-04-20T20:37:47.468Z,52.50
2019-04-20T20:40:18.959Z,52.60
2019-04-20T20:42:56.322Z,52.90
2019-04-20T20:45:28.912Z,53.00
2019-04-20T20:48:09.522Z,53.20
2019-04-20T20:50:42.741Z,53.40
2019-04-20T20:53:08.646Z,53.60
2019-04-20T20:55:35.563Z,53.40
2019-04-20T20:58:06.525Z,53.50
2019-04-20T21:00:41.802Z,53.70
2019-04-20T21:03:05.481Z,54.00
2019-04-20T21:05:31.584Z,53.90
2019-04-20T21:08:01.700Z,54.00
2019-04-20T21:10:42.357Z,54.00
2019-04-20T21:13:10.914Z,54.00
2019-04-20T21:15:45.416Z,54.10
2019-04-20T21:18:34.868Z,54.40
2019-04-20T21:21:01.972Z,54.50
2019-04-20T21:23:29.272Z,54.50
2019-04-20T21:26:11.491Z,54.80
2019-04-20T21:28:42.015Z,55.00
2019-04-20T21:31:16.878Z,55.40
2019-04-20T21:33:44.867Z,55.50
2019-04-20T21:36:19.216Z,55.60
2019-04-20T21:38:46.899Z,55.50
2019-04-20T21:41:20.194Z,55.60
2019-04-20T21:43:49.866Z,55.80
2019-04-20T21:46:20.805Z,56.00
2019-04-20T21:49:01.713Z,56.10
2019-04-20T21:51:33.340Z,56.30
2019-04-20T21:53:56.930Z,56.30
2019-04-20T21:56:26.082Z,56.40
2019-04-20T21:59:00.705Z,56.20
2019-04-20T22:01:35.739Z,56.40
2019-04-20T22:04:00.472Z,56.60
2019-04-20T22:06:32.034Z,56.50
2019-04-20T22:09:10.697Z,56.70
2019-04-20T22:11:39.995Z,56.60
2019-04-20T22:14:17.306Z,56.70
2019-04-20T22:16:46.079Z,57.00
2019-04-20T22:19:29.874Z,56.90
2019-04-20T22:21:58.444Z,57.00
2019-04-20T22:24:33.069Z,57.20
2019-04-20T22:26:54.933Z,57.20
2019-04-20T22:29:18.596Z,57.40
2019-04-20T22:31:56.468Z,57.40
2019-04-20T22:34:23.777Z,57.30
2019-04-20T22:36:52.197Z,57.40
2019-04-20T22:39:32.218Z,57.60
2019-04-20T22:42:00.186Z,57.70
2019-04-20T22:44:29.122Z,58.00
2019-04-20T22:46:58.602Z,57.80
2019-04-20T22:49:44.245Z,57.80
2019-04-20T22:52:13.246Z,58.10
2019-04-20T22:54:46.635Z,57.80
2019-04-20T22:57:17.696Z,58.10
2019-04-20T22:59:46.118Z,58.20
2019-04-20T23:02:08.455Z,58.20
2019-04-20T23:04:40.707Z,57.90
2019-04-20T23:07:14.742Z,58.50
2019-04-20T23:09:50.807Z,58.10
2019-04-20T23:12:22.739Z,58.40
2019-04-20T23:14:50.535Z,58.80
2019-04-20T23:17:26.928Z,58.60
2019-04-20T23:19:56.143Z,58.50
2019-04-20T23:22:33.619Z,58.70
2019-04-20T23:24:55.294Z,58.60
2019-04-20T23:27:31.164Z,58.90
2019-04-20T23:29:58.370Z,58.90
2019-04-20T23:32:30.265Z,58.40
2019-04-20T23:35:05.853Z,58.80
2019-04-20T23:37:35.067Z,58.90
2019-04-20T23:40:08.143Z,59.20
2019-04-20T23:42:49.680Z,59.10
2019-04-20T23:45:47.348Z,59.30
2019-04-20T23:48:33.706Z,59.30
2019-04-20T23:51:17.109Z,59.10
2019-04-20T23:53:48.297Z,59.10
2019-04-20T23:56:05.883Z,59.20
2019-04-20T23:58:40.624Z,59.10
